Airfield :
LOGIN :

Register | Disclaimer

   EN    FR    IT 

 










Legend :    VFR   Marginal VFR   IFR   Intensive IFR   Very Intensive IFR
Visi :
Ceiling :
>= 8 km
>= 3000ft
5 to 8 km
1000 to 3000 ft
1500m to 5 km
500 to 1000 ft
800 to 1500m
200 to 500 ft
< 800m
< 200 ft
Symbols :   Thunderstorms  Fog  Heavy snow  Heavy precipitations  Wind > 20 kt
SIGMETs :     Misc.  Thunderstorms  Icing  Turbulence  Mountain Waves  Volcanic Ashes






- Airport Elevation : 12 ft
- IATA code : CQF


LFAC - Calais

CURRENT METAR :
  • 181400Z AUTO 33006KT 300V020 CAVOK 12/04 Q1023

EXPIRED METARs :
  • 181330Z AUTO 34008KT 300V020 9999 FEW028 11/05 Q1023
  • 181300Z AUTO 32009KT 290V360 9999 SCT029 SCT034 12/05 Q1023
  • 181230Z AUTO 34008KT 310V030 9999 BKN031 11/05 Q1023
  • 181200Z AUTO 36007KT 310V040 9999 SCT030 11/05 Q1023
  • 181130Z AUTO 01007KT 310V050 9999 FEW032 11/05 Q1023
  • 181100Z AUTO 35006KT 310V030 9999 FEW028 BKN035 BKN047 11/06 Q1023
  • 181030Z AUTO 36006KT 320V040 9999 SCT030 BKN050 11/05 Q1023
  • 181000Z AUTO 02006KT 320V040 9999 FEW049 11/03 Q1022
  • 180930Z AUTO 01006KT 320V050 9999 SCT046 11/05 Q1022

TAF N/A
ATIS : +33 3 21 00 11 14



MET'MAP, your aeronautical weather chart ! - Copyright ORBIFLY December 2007 - Disclaimer

ORBIFLY MET'MAP TEAM :

Programming & Development : Alexandra Zaïnal
Original concept : Baudouin d'Aumeries
Technical & hardware support : Manuel Goepfert
Assistance : Marc-Olivier Méhu




SOURCES & CREDITS :

   NOAA